Laona, WI (54541)

6:59 PM CDT on October 24, 2014 (GMT -0500)
Silver Lake, Laona, WI | Change Station
CLOSE
Current Station
Personal Weather Station
Location: Laona, WI
Elevation: 1581 ft
Nearby Weather Stations

Elev 1581 ft 45.55 °N, 88.72 °W | Updated 1 second ago

Overcast
Overcast
56.1 °F
Feels Like 56.1 °F
N
3.6
Wind Variable Wind from SSW
Gusts 3.6 mph

Today
High -- | Low -- °F
--% Chance of Precip.
Yesterday
High -- | Low -- °F
Precip. -- in
7:23 AM 5:53 PM
New Moon, 1% visible
Pressure 29.86 in
Visibility 10.0 miles
Clouds Few 3100 ft
Scattered Clouds 4500 ft
Dew Point 46 °F
Humidity 69%
Rainfall 15.10 in
Snow Depth Not available.
UV 0 out of 12
Pollen .60 out of 12
Air Quality Not available.
Flu Activity Sporadic
METAR KIMT 242354Z AUTO 16007KT 10SM FEW031 SCT045 11/08 A2984 RMK AO2 SLP111 T01110083 10167 20106 58004

More Conditions Fewer Conditions

Pressure 29.86 in
Visibility 10.0 miles
Clouds Few 3100 ft
Scattered Clouds 4500 ft
Dew Point 46 °F
Humidity 69%
Rainfall 15.10 in
Snow Depth Not available.
UV 0 out of 12
Pollen .60 out of 12
Air Quality Not available.
Flu Activity Sporadic
METAR KIMT 242354Z AUTO 16007KT 10SM FEW031 SCT045 11/08 A2984 RMK AO2 SLP111 T01110083 10167 20106 58004

More Conditions Fewer Conditions

10-Day Weather Forecast

Almanac

Astronomy

Oct. 24, 2014 Rise Set
Actual Time 7:23 AM CDT 5:53 PM CDT
Civil Twilight 6:52 AM CDT 6:24 PM CDT
Nautical Twilight 6:18 AM CDT 6:58 PM CDT
Astronomical Twilight 5:43 AM CDT 7:33 PM CDT
Moon 8:03 AM CDT 6:31 PM CDT
Length of Visible Light 11h 31m
Length of Day
10h 30m
Tomorrow will be 2m 58s shorter.
New Moon, 1% of the Moon is Illuminated
Today
New Moon
Oct 30
First Quarter
Nov 6
Full
Nov 14
Last Quarter
Nov 22
New

Today's Extremes

State Highs State Lows

Community

WunderPhotos

Upload Photos

1,764,713 photos uploaded!

Nearby

Snow Depth

Station Depth Elevation
No new snow has been reported.

Earthquake Activity

City Distance Mag. Time & Date
No recent earthquake activity has been reported nearby.
Minimum magnitude displayed is 2.5.

Coastal Water Temperatures

Place Temperature
No Stations Reporting

Nearby Weather Stations